Airport View

Enter AWOS ICAO identifier for current METAR.

ex. KFNL

KPWT 210756Z AUTO 00000KT 10SM BKN032 BKN085 04/04 A3010 RMK AO2 SLP198 T00440044 401610028 $

21 Oct 2020 08:04

Frequency: 121.2

Phone: 360-674-2811

Other Area AWOS: KTIW - KSEA - KBFI - KSHN

TAF KPWT 210523Z 2106/2206 VRB04KT P6SM FEW040 SCT050 FM211000 18008KT P6SM FEW030 BKN050 FM212100 02008KT P6SM BKN050 FM220200 03008KT P6SM SCT050 SCT250